Time;durP1;ratioP1;P1;durP2;ratioP2;P2;SDS_P1;SDS_P2;PMS_P1;PMS_P2;Temp;Humidity;BMP_temperature;BMP_pressure;BME280_temperature;BME280_humidity;BME280_pressure;Samples;Min_cycle;Max_cycle;Signal;HPM_P1;HPM_P2
2023/07/28 00:02:23;;;;;;;4.43;1.73;;;;;;;26.26;35.27;99313.53;4501180;31;33407;-65
2023/07/28 00:04:51;;;;;;;3.75;1.90;;;;;;;26.25;35.26;99311.03;4501087;31;34713;-65
2023/07/28 00:07:18;;;;;;;3.83;1.73;;;;;;;26.25;35.30;99311.03;4500938;31;34106;-66
2023/07/28 00:09:46;;;;;;;2.97;1.60;;;;;;;26.25;35.27;99305.56;4499808;31;33578;-65
2023/07/28 00:12:13;;;;;;;2.83;1.70;;;;;;;26.24;35.33;99307.47;4500899;31;34405;-64
2023/07/28 00:14:41;;;;;;;2.62;1.60;;;;;;;26.24;35.36;99317.59;4500914;31;33959;-65
2023/07/28 00:17:08;;;;;;;7.25;1.73;;;;;;;26.24;35.44;99312.94;4500932;31;34663;-66
2023/07/28 00:19:36;;;;;;;9.70;1.52;;;;;;;26.24;35.37;99306.66;4500907;31;34313;-66
2023/07/28 00:22:04;;;;;;;2.85;1.80;;;;;;;26.23;35.25;99300.37;4500973;31;33502;-66
2023/07/28 00:24:32;;;;;;;3.53;1.90;;;;;;;26.22;35.16;99301.47;4500897;31;34016;-66
2023/07/28 00:27:00;;;;;;;3.40;1.80;;;;;;;26.22;35.23;99292.44;4500997;31;34833;-65
2023/07/28 00:29:27;;;;;;;4.22;1.42;;;;;;;26.24;35.25;99298.47;4500494;31;34654;-64
2023/07/28 00:31:55;;;;;;;3.37;1.65;;;;;;;26.22;35.32;99295.16;4500566;31;33482;-66
2023/07/28 00:34:23;;;;;;;3.97;1.80;;;;;;;26.20;35.38;99290.75;4500804;31;34698;-64
2023/07/28 00:36:51;;;;;;;3.15;1.70;;;;;;;26.19;35.48;99291.84;4500659;31;33673;-66
2023/07/28 00:39:18;;;;;;;2.70;1.52;;;;;;;26.20;35.46;99292.66;4500807;31;33920;-66
2023/07/28 00:41:46;;;;;;;4.03;1.60;;;;;;;26.19;35.50;99297.31;4500755;31;35181;-65
2023/07/28 00:44:16;;;;;;;3.37;1.87;;;;;;;26.19;35.46;99294.59;4500657;31;35177;-65
2023/07/28 00:46:45;;;;;;;5.55;1.65;;;;;;;26.18;35.52;99295.66;4500696;31;34000;-65
2023/07/28 00:49:12;;;;;;;2.80;1.67;;;;;;;26.19;35.47;99289.12;4486592;31;34243;-65
2023/07/28 00:51:40;;;;;;;3.62;1.87;;;;;;;26.19;35.50;99278.19;4499490;31;33808;-65
2023/07/28 00:54:07;;;;;;;3.92;1.92;;;;;;;26.19;35.55;99282.81;4486464;31;34611;-66
2023/07/28 00:56:35;;;;;;;2.78;1.70;;;;;;;26.17;35.49;99285.81;4470351;32;33980;-65
2023/07/28 00:59:03;;;;;;;3.05;1.65;;;;;;;26.18;35.54;99292.94;4484710;31;34131;-65
2023/07/28 01:01:31;;;;;;;2.72;1.73;;;;;;;26.17;35.62;99288.56;4498895;31;33204;-66
2023/07/28 01:03:58;;;;;;;2.70;1.58;;;;;;;26.18;35.59;99298.41;4500548;31;33478;-65
2023/07/28 01:06:52;;;;;;;3.12;1.50;;;;;;;26.16;35.50;99281.44;4486202;31;34609;-65
2023/07/28 01:09:22;;;;;;;3.62;2.00;;;;;;;26.18;35.66;99292.13;4499330;31;34099;-66
2023/07/28 01:11:54;;;;;;;2.72;1.58;;;;;;;26.15;35.53;99281.69;4499236;31;33557;-65
2023/07/28 01:14:21;;;;;;;2.70;1.60;;;;;;;26.16;35.56;99283.31;4500539;31;34060;-66
2023/07/28 01:16:49;;;;;;;2.40;1.50;;;;;;;26.15;35.66;99277.03;4500417;31;33627;-66
2023/07/28 01:19:18;;;;;;;3.87;1.90;;;;;;;26.15;35.58;99278.94;4486372;31;33947;-66
2023/07/28 01:21:48;;;;;;;3.33;1.73;;;;;;;26.14;35.58;99277.31;4499343;31;33561;-66
2023/07/28 01:24:17;;;;;;;;;;;;;;;26.16;35.46;99275.13;4486679;31;34538;-65
2023/07/28 01:26:44;;;;;;;3.35;1.67;;;;;;;26.24;35.37;99273.84;4499325;31;34951;-66
2023/07/28 01:29:13;;;;;;;2.87;1.62;;;;;;;26.16;35.58;99280.59;4499291;31;34307;-64
2023/07/28 01:31:40;;;;;;;3.37;1.80;;;;;;;26.14;35.72;99283.59;4486039;31;33144;-65
2023/07/28 01:34:08;;;;;;;3.37;1.65;;;;;;;26.12;35.68;99280.31;4500362;31;34843;-66
2023/07/28 01:36:35;;;;;;;4.97;1.87;;;;;;;26.12;35.67;99272.09;4500418;31;34839;-65
2023/07/28 01:39:03;;;;;;;3.72;1.87;;;;;;;26.12;35.60;99269.37;4500404;31;33884;-65
2023/07/28 01:41:31;;;;;;;4.05;1.90;;;;;;;26.13;35.68;99279.22;4499974;31;33644;-65
2023/07/28 01:43:58;;;;;;;3.72;1.70;;;;;;;26.13;35.55;99271.00;4500271;31;34578;-66
2023/07/28 01:46:26;;;;;;;3.50;1.70;;;;;;;26.12;35.63;99272.09;4500078;31;33810;-66
2023/07/28 01:48:53;;;;;;;4.25;2.05;;;;;;;26.12;35.59;99269.37;4500467;31;34008;-66
2023/07/28 01:51:21;;;;;;;3.75;2.03;;;;;;;26.11;35.61;99270.47;4500197;31;34512;-66
2023/07/28 01:53:49;;;;;;;3.22;1.80;;;;;;;26.11;35.67;99270.47;4500398;31;33787;-65
2023/07/28 01:56:16;;;;;;;3.65;1.85;;;;;;;26.11;35.64;99267.72;4500284;31;33810;-66
2023/07/28 01:58:44;;;;;;;3.03;1.75;;;;;;;26.12;35.69;99269.37;4500144;31;34869;-65
2023/07/28 02:01:14;;;;;;;4.28;2.10;;;;;;;26.11;35.69;99265.00;4485689;31;33570;-65
2023/07/28 02:03:42;;;;;;;3.45;1.90;;;;;;;26.10;35.74;99263.31;4484438;32;33920;-65
2023/07/28 02:06:10;;;;;;;4.05;1.90;;;;;;;26.10;35.79;99262.50;4484605;32;33653;-66
2023/07/28 02:08:37;;;;;;;3.00;1.80;;;;;;;26.12;35.70;99269.37;4484230;32;34188;-65
2023/07/28 02:11:05;;;;;;;3.08;1.67;;;;;;;26.11;35.70;99267.72;4484124;32;34437;-66
2023/07/28 02:13:33;;;;;;;3.08;1.75;;;;;;;26.10;35.80;99263.31;4483617;32;34313;-65
2023/07/28 02:16:02;;;;;;;3.42;1.60;;;;;;;26.11;35.71;99265.00;4482535;32;34543;-65
2023/07/28 02:18:30;;;;;;;5.60;2.10;;;;;;;26.10;35.79;99266.03;4483837;32;34155;-66
2023/07/28 02:20:57;;;;;;;3.20;1.70;;;;;;;26.11;35.69;99272.34;4484299;32;33558;-65
2023/07/28 02:23:25;;;;;;;2.50;1.58;;;;;;;26.11;35.68;99267.72;4484258;32;33918;-66
2023/07/28 02:25:53;;;;;;;2.03;1.23;;;;;;;26.11;35.75;99264.13;4484521;32;34420;-66
2023/07/28 02:28:20;;;;;;;3.28;1.85;;;;;;;26.11;35.78;99264.13;4484140;32;34214;-65
2023/07/28 02:30:49;;;;;;;3.47;1.90;;;;;;;26.10;35.74;99260.56;4483976;32;33373;-66
2023/07/28 02:33:17;;;;;;;2.40;1.45;;;;;;;26.09;35.76;99261.66;4484218;32;34001;-65
2023/07/28 02:35:44;;;;;;;3.87;1.50;;;;;;;26.09;35.90;99258.94;4484041;32;34765;-66
2023/07/28 02:38:12;;;;;;;5.55;1.73;;;;;;;26.09;35.93;99256.19;4484124;32;33912;-66
2023/07/28 02:40:39;;;;;;;5.28;2.03;;;;;;;26.10;35.76;99260.56;4484030;32;34317;-65
2023/07/28 02:43:07;;;;;;;3.58;2.00;;;;;;;26.10;35.81;99263.31;4484241;32;33664;-64
2023/07/28 02:45:34;;;;;;;3.12;1.83;;;;;;;26.10;35.84;99267.97;4482837;32;33546;-66
2023/07/28 02:48:02;;;;;;;3.33;1.60;;;;;;;26.10;35.83;99263.31;4484025;32;34958;-65
2023/07/28 02:50:30;;;;;;;2.75;1.60;;;;;;;26.09;35.90;99264.41;4483846;32;33668;-66
2023/07/28 02:52:57;;;;;;;3.50;1.70;;;;;;;26.09;35.93;99267.13;4483626;32;34529;-65
2023/07/28 02:55:25;;;;;;;2.83;1.50;;;;;;;26.09;35.86;99253.47;4483295;32;34000;-65
2023/07/28 02:57:53;;;;;;;3.58;1.70;;;;;;;26.08;35.88;99257.28;4484141;32;34713;-65
2023/07/28 03:00:20;;;;;;;2.97;1.73;;;;;;;26.08;35.81;99262.75;4492977;31;34581;-66
2023/07/28 03:02:48;;;;;;;3.42;1.85;;;;;;;26.09;35.86;99269.87;4499977;31;34916;-66
2023/07/28 03:05:16;;;;;;;4.05;1.70;;;;;;;26.09;35.91;99264.41;4499544;31;33891;-65
2023/07/28 03:07:50;;;;;;;2.97;1.75;;;;;;;26.09;35.94;99269.03;4499909;31;33846;-65
2023/07/28 03:10:18;;;;;;;3.35;1.95;;;;;;;26.09;35.90;99267.13;4499477;31;33399;-66
2023/07/28 03:12:46;;;;;;;4.12;1.48;;;;;;;26.09;35.76;99260.84;4499358;31;33423;-65
2023/07/28 03:15:13;;;;;;;3.53;1.85;;;;;;;26.08;35.82;99278.34;4499667;31;34779;-65
2023/07/28 03:17:41;;;;;;;3.42;1.50;;;;;;;26.08;35.83;99272.88;4499483;31;34150;-65
2023/07/28 03:20:09;;;;;;;5.22;2.08;;;;;;;26.08;35.98;99265.50;4499537;31;33754;-66
2023/07/28 03:22:37;;;;;;;3.00;1.67;;;;;;;26.09;35.94;99263.56;4499432;31;34582;-66
2023/07/28 03:25:05;;;;;;;3.47;1.67;;;;;;;26.07;35.85;99252.09;4499306;31;33721;-66
2023/07/28 03:27:32;;;;;;;3.15;1.50;;;;;;;26.07;35.78;99249.34;4499163;31;34125;-65
2023/07/28 03:30:00;;;;;;;4.18;1.60;;;;;;;26.07;35.87;99252.09;4499273;31;33192;-66
2023/07/28 03:32:28;;;;;;;3.67;1.65;;;;;;;26.08;35.79;99248.25;4499370;31;33514;-65
2023/07/28 03:34:55;;;;;;;5.35;1.80;;;;;;;26.07;35.92;99255.66;4499097;31;33983;-65
2023/07/28 03:37:23;;;;;;;4.22;1.40;;;;;;;26.07;35.91;99252.91;4499379;31;34129;-65
2023/07/28 03:39:50;;;;;;;5.05;2.05;;;;;;;26.07;35.88;99254.81;4499032;31;33568;-64
2023/07/28 03:42:19;;;;;;;2.87;1.67;;;;;;;26.07;35.92;99257.56;4499299;31;33685;-65
2023/07/28 03:44:46;;;;;;;15.43;2.15;;;;;;;26.07;35.91;99252.09;4497820;31;34998;-64
2023/07/28 03:47:14;;;;;;;3.35;1.65;;;;;;;26.06;35.91;99251.22;4499083;31;34329;-65
2023/07/28 03:49:42;;;;;;;3.92;1.73;;;;;;;26.05;35.90;99249.59;4498972;31;34471;-66
2023/07/28 03:52:09;;;;;;;3.55;1.90;;;;;;;26.06;35.88;99250.41;4499146;31;33663;-65
2023/07/28 03:54:37;;;;;;;3.50;1.85;;;;;;;26.06;35.78;99253.16;4498831;31;33813;-66
2023/07/28 03:57:05;;;;;;;3.30;1.60;;;;;;;26.03;35.71;99243.56;4498934;31;33781;-65
2023/07/28 03:59:32;;;;;;;2.60;1.33;;;;;;;26.03;35.77;99253.69;4495001;31;33185;-65
2023/07/28 04:02:00;;;;;;;2.65;1.58;;;;;;;26.02;35.75;99254.75;4482989;32;33898;-64
2023/07/28 04:04:28;;;;;;;4.03;1.62;;;;;;;26.02;35.82;99261.06;4483145;32;33932;-65
2023/07/28 04:06:56;;;;;;;2.42;1.45;;;;;;;26.02;35.86;99263.78;4483750;32;34864;-66
2023/07/28 04:09:23;;;;;;;3.92;1.90;;;;;;;26.02;35.81;99263.78;4483867;32;33608;-66
2023/07/28 04:11:51;;;;;;;2.58;1.62;;;;;;;26.02;35.77;99265.69;4483900;32;33617;-65
2023/07/28 04:14:19;;;;;;;2.40;1.40;;;;;;;26.01;35.80;99272.22;4485118;32;33840;-65
2023/07/28 04:16:47;;;;;;;4.03;1.80;;;;;;;25.99;35.91;99264.28;4485065;32;34025;-65
2023/07/28 04:19:14;;;;;;;3.55;1.70;;;;;;;26.00;35.90;99265.94;4485295;32;34099;-65
2023/07/28 04:21:42;;;;;;;3.22;1.75;;;;;;;26.01;35.89;99266.75;4485077;32;34771;-65
2023/07/28 04:24:19;;;;;;;3.05;1.70;;;;;;;26.01;35.87;99266.75;4485280;32;34943;-62
2023/07/28 04:26:50;;;;;;;4.37;1.62;;;;;;;25.99;36.04;99275.22;4484363;32;34070;-61
2023/07/28 04:29:18;;;;;;;2.37;1.42;;;;;;;26.00;36.06;99279.59;4485102;32;33626;-65
2023/07/28 04:31:46;;;;;;;2.75;1.77;;;;;;;26.00;36.15;99276.06;4484755;32;33750;-63
2023/07/28 04:34:14;;;;;;;3.55;1.98;;;;;;;26.00;36.30;99276.06;4485322;32;33790;-62
2023/07/28 04:36:43;;;;;;;3.58;1.70;;;;;;;26.00;36.26;99271.41;4484996;32;33010;-62
2023/07/28 04:39:11;;;;;;;3.67;1.73;;;;;;;26.01;36.30;99270.31;4485285;32;34449;-62
2023/07/28 04:41:39;;;;;;;4.75;1.80;;;;;;;26.01;36.26;99266.75;4485031;32;34702;-62
2023/07/28 04:44:06;;;;;;;5.32;1.77;;;;;;;26.02;36.38;99262.94;4484930;32;33973;-62
2023/07/28 04:46:35;;;;;;;5.57;2.37;;;;;;;26.01;36.32;99248.44;4485190;32;34261;-63
2023/07/28 04:49:03;;;;;;;3.28;1.85;;;;;;;26.02;36.32;99231.00;4494694;31;32978;-62
2023/07/28 04:51:34;;;;;;;5.70;1.70;;;;;;;26.03;36.40;99229.06;4485003;31;34095;-62
2023/07/28 04:54:03;;;;;;;4.40;2.00;;;;;;;26.03;36.50;99232.63;4492574;31;34114;-61
2023/07/28 04:56:31;;;;;;;5.93;2.10;;;;;;;26.04;36.49;99233.44;4501019;31;33898;-62
2023/07/28 04:58:59;;;;;;;3.47;1.70;;;;;;;26.03;36.57;99240.84;4500226;31;33548;-62
2023/07/28 05:01:27;;;;;;;3.80;2.03;;;;;;;26.04;36.59;99247.94;4484808;32;33811;-63
2023/07/28 05:03:55;;;;;;;5.00;1.87;;;;;;;26.04;36.53;99244.38;4484888;32;34074;-63
2023/07/28 05:06:23;;;;;;;3.95;1.98;;;;;;;26.04;36.64;99247.94;4493188;31;33967;-65
2023/07/28 05:08:51;;;;;;;4.12;2.10;;;;;;;26.03;36.50;99251.78;4500502;31;34382;-62
2023/07/28 05:11:19;;;;;;;3.33;1.85;;;;;;;26.03;36.58;99242.75;4500710;31;34006;-62
2023/07/28 05:13:47;;;;;;;6.90;1.80;;;;;;;26.03;36.46;99240.84;4500375;31;33443;-65
2023/07/28 05:16:14;;;;;;;3.33;1.80;;;;;;;26.04;36.46;99249.84;4500489;31;33737;-65
2023/07/28 05:18:45;;;;;;;7.87;2.20;;;;;;;26.03;36.41;99245.47;4500331;31;33546;-62
2023/07/28 05:21:14;;;;;;;3.43;1.97;;;;;;;26.06;36.48;99250.41;4500550;31;32962;-64
2023/07/28 05:23:42;;;;;;;4.50;2.08;;;;;;;26.04;36.51;99245.22;4500456;31;34539;-64
2023/07/28 05:26:12;;;;;;;3.83;2.42;;;;;;;26.03;36.45;99248.22;4500653;31;34493;-66
2023/07/28 05:28:40;;;;;;;3.95;1.80;;;;;;;26.04;36.46;99242.47;4499148;31;33430;-62
2023/07/28 05:31:08;;;;;;;2.53;1.70;;;;;;;26.03;36.60;99254.50;4500156;31;33836;-64
2023/07/28 05:33:39;;;;;;;2.83;1.80;;;;;;;26.03;36.68;99259.97;4500443;31;34001;-65
2023/07/28 05:36:06;;;;;;;6.00;2.35;;;;;;;26.04;36.62;99258.06;4492837;31;34192;-64
2023/07/28 05:38:34;;;;;;;3.25;1.75;;;;;;;26.04;36.60;99249.84;4484732;31;33611;-65
2023/07/28 05:41:03;;;;;;;4.25;2.05;;;;;;;26.05;36.71;99248.75;4484392;32;33822;-63
2023/07/28 05:43:31;;;;;;;4.15;1.85;;;;;;;26.04;36.73;99261.63;4496751;31;33813;-62
2023/07/28 05:45:59;;;;;;;4.18;2.10;;;;;;;26.05;36.79;99254.25;4499352;31;34957;-64
2023/07/28 05:48:27;;;;;;;2.53;1.55;;;;;;;26.04;36.62;99256.16;4500171;31;33685;-64
2023/07/28 05:50:55;;;;;;;4.07;2.10;;;;;;;26.04;36.74;99258.06;4500321;31;34319;-63
2023/07/28 05:53:22;;;;;;;4.35;2.25;;;;;;;26.04;36.72;99266.25;4498897;31;34029;-66
2023/07/28 05:55:50;;;;;;;6.50;1.80;;;;;;;26.03;36.76;99265.44;4499127;31;33891;-66
2023/07/28 05:58:18;;;;;;;4.07;1.80;;;;;;;26.03;36.72;99270.09;4500298;31;34159;-63
2023/07/28 06:00:46;;;;;;;4.37;1.65;;;;;;;26.04;36.75;99283.47;4488717;31;33749;-63
2023/07/28 06:03:15;;;;;;;4.55;1.60;;;;;;;26.04;36.73;99279.94;4484603;32;34664;-62
2023/07/28 06:05:45;;;;;;;13.20;2.67;;;;;;;26.03;36.73;99281.03;4483515;32;33789;-62
2023/07/28 06:08:13;;;;;;;3.65;1.77;;;;;;;26.04;36.69;99283.47;4484662;32;33194;-62
2023/07/28 06:10:41;;;;;;;4.75;2.10;;;;;;;26.03;36.74;99287.31;4484164;32;33906;-62
2023/07/28 06:13:09;;;;;;;3.45;1.90;;;;;;;26.02;36.66;99288.41;4484361;32;33917;-62
2023/07/28 06:15:39;;;;;;;4.93;2.00;;;;;;;26.02;36.77;99284.81;4484347;32;34917;-63
2023/07/28 06:18:07;;;;;;;3.28;1.85;;;;;;;26.01;36.84;99286.72;4496505;31;34443;-62
2023/07/28 06:20:34;;;;;;;5.25;2.28;;;;;;;26.01;36.79;99283.97;4498860;31;34721;-61
2023/07/28 06:23:02;;;;;;;6.90;2.20;;;;;;;26.02;36.79;99271.13;4498817;31;33679;-65
2023/07/28 06:25:30;;;;;;;5.12;2.00;;;;;;;26.01;36.74;99264.03;4500158;31;34593;-61
2023/07/28 06:27:57;;;;;;;3.35;1.67;;;;;;;26.01;36.72;99273.06;4498851;31;34059;-66
2023/07/28 06:30:26;;;;;;;3.58;2.17;;;;;;;26.01;36.74;99277.69;4499989;31;34717;-66
2023/07/28 06:32:54;;;;;;;6.25;2.08;;;;;;;26.03;36.73;99283.75;4482908;32;34586;-62
2023/07/28 06:35:22;;;;;;;5.97;2.08;;;;;;;26.02;36.78;99280.19;4458462;32;34398;-65
2023/07/28 06:37:50;;;;;;;3.58;1.80;;;;;;;26.03;36.76;99286.47;4476738;32;33312;-65
2023/07/28 06:40:18;;;;;;;6.80;1.92;;;;;;;26.04;36.86;99288.12;4475746;32;33945;-64
2023/07/28 06:42:46;;;;;;;9.50;2.00;;;;;;;26.06;36.83;99277.75;4476981;32;33905;-66
2023/07/28 06:45:14;;;;;;;5.28;2.00;;;;;;;26.06;36.75;99281.31;4475011;32;34872;-66
2023/07/28 06:47:41;;;;;;;4.55;1.85;;;;;;;26.06;36.72;99270.37;4476852;32;34610;-65
2023/07/28 06:50:11;;;;;;;6.25;2.20;;;;;;;26.07;36.81;99273.97;4484111;32;33960;-66
2023/07/28 06:52:39;;;;;;;7.50;1.80;;;;;;;26.07;36.88;99268.50;4469620;32;33571;-66
2023/07/28 06:55:07;;;;;;;3.22;2.00;;;;;;;26.08;36.88;99276.44;4483528;32;34012;-66
2023/07/28 06:57:35;;;;;;;2.95;1.50;;;;;;;26.08;36.85;99265.50;4481972;32;33551;-62
2023/07/28 07:00:05;;;;;;;5.00;2.00;;;;;;;26.09;36.80;99263.56;4482112;32;34647;-63
2023/07/28 07:02:33;;;;;;;7.40;2.10;;;;;;;26.08;36.81;99260.03;4482777;32;34004;-66
2023/07/28 07:05:01;;;;;;;7.05;2.10;;;;;;;26.10;36.79;99259.75;4483014;32;34078;-66
2023/07/28 07:07:28;;;;;;;5.28;2.08;;;;;;;26.10;36.78;99265.22;4483072;32;33622;-63
2023/07/28 07:09:57;;;;;;;4.50;1.77;;;;;;;26.09;36.79;99261.66;4469336;32;34727;-61
2023/07/28 07:12:25;;;;;;;5.40;2.00;;;;;;;26.09;36.82;99261.66;4483697;32;34534;-66
2023/07/28 07:14:52;;;;;;;8.23;2.12;;;;;;;26.08;36.89;99267.41;4483628;32;34770;-62
2023/07/28 07:17:20;;;;;;;6.37;2.05;;;;;;;26.09;36.87;99269.87;4483722;32;33658;-62
2023/07/28 07:19:48;;;;;;;3.92;1.92;;;;;;;26.10;36.83;99259.75;4482786;32;34660;-64
2023/07/28 07:22:15;;;;;;;3.17;1.90;;;;;;;26.10;36.87;99254.28;4483444;32;33993;-64
2023/07/28 07:24:43;;;;;;;7.28;2.50;;;;;;;26.10;36.82;99249.62;4483603;32;34003;-62
2023/07/28 07:27:10;;;;;;;4.03;2.12;;;;;;;26.11;36.78;99250.47;4483619;32;33557;-62
2023/07/28 07:29:39;;;;;;;5.03;2.45;;;;;;;26.10;36.81;99246.91;4483476;32;34723;-67
2023/07/28 07:32:07;;;;;;;4.85;1.92;;;;;;;26.12;36.87;99252.97;4488040;31;34198;-62
2023/07/28 07:34:36;;;;;;;5.25;2.20;;;;;;;26.13;36.97;99259.25;4499109;31;34918;-63
2023/07/28 07:37:04;;;;;;;5.00;2.10;;;;;;;26.14;37.00;99250.78;4499133;31;33347;-61
2023/07/28 07:39:33;;;;;;;6.40;2.53;;;;;;;26.16;36.97;99248.63;4499153;31;34727;-61
2023/07/28 07:42:01;;;;;;;7.80;2.47;;;;;;;26.16;36.95;99237.69;4498442;31;34861;-62
2023/07/28 07:44:29;;;;;;;5.90;2.42;;;;;;;26.18;36.94;99234.69;4485379;32;34239;-62
2023/07/28 07:47:00;;;;;;;7.47;2.50;;;;;;;26.19;36.95;99236.34;4485405;32;34279;-61
2023/07/28 07:49:27;;;;;;;4.47;2.17;;;;;;;26.18;36.97;99227.31;4487090;31;34688;-60
2023/07/28 07:51:55;;;;;;;5.25;2.42;;;;;;;26.19;36.96;99228.94;4492221;31;35396;-60
2023/07/28 07:54:23;;;;;;;5.55;2.40;;;;;;;26.22;37.19;99241.31;4491163;31;34838;-62
2023/07/28 07:56:50;;;;;;;7.80;3.25;;;;;;;26.23;37.33;99237.47;4492811;31;33773;-65
2023/07/28 07:59:18;;;;;;;6.93;2.80;;;;;;;26.22;37.33;99227.62;4490722;31;33790;-71
2023/07/28 08:01:46;;;;;;;4.53;2.67;;;;;;;26.23;37.31;99232.00;4493093;31;33767;-71
2023/07/28 08:04:14;;;;;;;7.60;3.08;;;;;;;26.24;37.27;99232.81;4488463;31;34632;-71
2023/07/28 08:06:42;;;;;;;6.10;2.53;;;;;;;26.26;37.29;99233.41;4490245;31;34565;-70
2023/07/28 08:09:09;;;;;;;7.57;3.20;;;;;;;26.27;37.33;99240.53;4501056;31;33946;-67
2023/07/28 08:11:37;;;;;;;11.00;3.40;;;;;;;26.26;37.35;99236.97;4500479;31;34957;-67
2023/07/28 08:14:05;;;;;;;10.82;3.17;;;;;;;26.27;37.38;99229.59;4501193;31;34065;-62
2023/07/28 08:16:32;;;;;;;15.43;3.50;;;;;;;26.27;37.37;99233.13;4500976;31;34504;-62
2023/07/28 08:19:00;;;;;;;8.32;3.12;;;;;;;26.27;37.35;99238.59;4500882;31;34427;-66
2023/07/28 08:21:27;;;;;;;7.28;3.03;;;;;;;26.27;37.32;99224.13;4500796;31;34351;-66
2023/07/28 08:23:55;;;;;;;6.18;2.78;;;;;;;26.28;37.36;99239.44;4499248;31;34334;-67
2023/07/28 08:26:23;;;;;;;8.00;3.30;;;;;;;26.27;37.33;99230.41;4499036;31;33428;-64
2023/07/28 08:28:50;;;;;;;6.62;3.25;;;;;;;26.28;37.33;99239.44;4499418;31;33619;-65
2023/07/28 08:31:18;;;;;;;6.65;2.50;;;;;;;26.28;37.33;99251.19;4500402;31;33558;-70
2023/07/28 08:33:46;;;;;;;11.65;3.00;;;;;;;26.28;37.33;99236.69;4500435;31;33903;-66
2023/07/28 08:36:13;;;;;;;6.53;2.47;;;;;;;26.28;37.33;99243.00;4500621;31;34971;-69
2023/07/28 08:38:41;;;;;;;7.47;2.58;;;;;;;26.28;37.37;99240.25;4500776;31;33637;-70
2023/07/28 08:41:09;;;;;;;5.28;2.28;;;;;;;26.28;37.38;99237.53;4500641;31;34421;-64
2023/07/28 08:43:37;;;;;;;6.55;2.55;;;;;;;26.29;37.32;99224.66;4487837;31;33686;-70
2023/07/28 08:46:08;;;;;;;6.20;2.47;;;;;;;26.29;37.34;99230.13;4484685;32;33837;-69
2023/07/28 08:48:36;;;;;;;4.45;2.30;;;;;;;26.28;37.33;99231.22;4488350;31;33770;-63
2023/07/28 08:51:08;;;;;;;4.87;2.28;;;;;;;26.30;37.31;99229.91;4500619;31;33996;-66
2023/07/28 08:53:36;;;;;;;3.50;1.92;;;;;;;26.29;37.31;99213.72;4500482;31;34829;-69
2023/07/28 08:56:03;;;;;;;3.78;1.87;;;;;;;26.31;37.27;99206.09;4500655;31;33439;-70
2023/07/28 08:58:33;;;;;;;;;;;;;;;26.31;37.24;99200.63;4499667;31;33694;-62
2023/07/28 09:01:01;;;;;;;7.55;2.28;;;;;;;26.41;37.06;99209.75;4500561;31;34158;-63
2023/07/28 09:03:29;;;;;;;6.65;2.17;;;;;;;26.34;37.22;99208.28;4500679;31;34082;-63
2023/07/28 09:06:01;;;;;;;5.50;1.95;;;;;;;26.33;37.34;99198.44;4499641;31;33369;-63
2023/07/28 09:08:32;;;;;;;5.70;2.08;;;;;;;26.31;37.30;99192.44;4500536;31;34856;-69
2023/07/28 09:11:03;;;;;;;4.80;2.10;;;;;;;26.32;37.42;99191.34;4500768;31;34123;-69
2023/07/28 09:13:41;;;;;;;3.95;2.05;;;;;;;26.32;37.39;99194.91;4486408;31;34844;-69
2023/07/28 09:16:18;;;;;;;3.30;2.00;;;;;;;26.34;37.39;99197.34;4500575;31;33056;-64
2023/07/28 09:18:47;;;;;;;3.92;1.92;;;;;;;26.35;37.46;99199.03;4499370;31;34678;-63
2023/07/28 09:21:19;;;;;;;4.47;1.85;;;;;;;26.35;37.51;99193.56;4500469;31;33705;-69
2023/07/28 09:23:48;;;;;;;4.35;1.92;;;;;;;26.35;37.50;99201.78;4500587;31;33703;-67
2023/07/28 09:26:16;;;;;;;5.75;2.30;;;;;;;26.35;37.53;99197.12;4500276;31;33684;-64
2023/07/28 09:28:43;;;;;;;4.12;2.17;;;;;;;26.37;37.68;99196.84;4500482;31;34143;-63
2023/07/28 09:31:11;;;;;;;3.90;2.03;;;;;;;26.39;37.79;99197.41;4493137;31;34141;-68
2023/07/28 09:33:42;;;;;;;5.45;2.33;;;;;;;26.38;37.83;99195.75;4499664;31;34090;-67
2023/07/28 09:36:11;;;;;;;5.22;2.37;;;;;;;26.42;37.87;99205.91;4500147;31;33756;-67
2023/07/28 09:38:41;;;;;;;4.60;1.98;;;;;;;26.46;38.03;99209.00;4499868;31;33628;-70
2023/07/28 09:41:10;;;;;;;3.87;2.00;;;;;;;26.47;38.08;99194.22;4499921;31;34112;-68
2023/07/28 09:43:38;;;;;;;5.05;2.05;;;;;;;26.47;38.23;99199.69;4486552;31;34565;-67
2023/07/28 09:46:08;;;;;;;6.80;2.35;;;;;;;26.47;38.22;99194.22;4486679;31;33691;-69
2023/07/28 09:48:37;;;;;;;3.62;1.80;;;;;;;26.47;38.35;99198.88;4498310;31;33950;-70
2023/07/28 09:51:22;;;;;;;4.30;2.20;;;;;;;26.47;38.32;99196.97;4498296;31;34007;-61
2023/07/28 09:53:58;;;;;;;2.97;1.77;;;;;;;26.53;38.43;99189.59;4486075;31;32659;-62
2023/07/28 09:56:27;;;;;;;4.43;1.95;;;;;;;26.53;38.47;99193.16;4486139;31;33674;-61
2023/07/28 09:58:55;;;;;;;3.27;1.90;;;;;;;26.54;38.52;99178.44;4497973;31;33883;-62
2023/07/28 10:01:23;;;;;;;4.10;2.17;;;;;;;26.56;38.54;99181.72;4497720;31;33964;-62
2023/07/28 10:03:51;;;;;;;4.18;1.90;;;;;;;26.56;38.54;99195.38;4497570;31;33936;-62
2023/07/28 10:06:19;;;;;;;3.95;1.77;;;;;;;26.59;38.58;99180.38;4499183;31;33599;-61
2023/07/28 10:08:46;;;;;;;5.05;1.80;;;;;;;26.59;38.57;99175.72;4484938;31;33770;-65
2023/07/28 10:11:17;;;;;;;4.72;2.03;;;;;;;26.60;38.59;99168.34;4485190;31;34151;-65
2023/07/28 10:13:46;;;;;;;5.43;2.30;;;;;;;26.60;38.65;99179.28;4499017;31;33778;-62
2023/07/28 10:16:15;;;;;;;;;;;;;;;26.60;38.66;99168.34;4499546;31;33698;-62
2023/07/28 10:18:51;;;;;;;5.07;2.35;;;;;;;26.69;38.53;99180.44;4498663;31;34203;-69
2023/07/28 10:21:19;;;;;;;10.90;5.30;;;;;;;26.62;38.70;99179.81;4499049;31;34531;-68
2023/07/28 10:23:56;;;;;;;9.77;5.30;;;;;;;26.59;38.83;99189.41;4500407;31;34033;-71
2023/07/28 10:26:37;;;;;;;19.40;8.60;;;;;;;26.59;38.80;99183.94;4486138;31;33476;-69
2023/07/28 10:29:15;;;;;;;13.25;8.65;;;;;;;26.60;38.90;99182.84;4498791;31;33802;-70
2023/07/28 10:31:53;;;;;;;14.98;8.18;;;;;;;26.60;39.01;99182.84;4485830;31;32860;-73
2023/07/28 10:34:22;;;;;;;15.00;9.27;;;;;;;26.59;39.02;99175.72;4499381;31;34010;-70
2023/07/28 10:36:57;;;;;;;15.50;8.35;;;;;;;26.61;39.10;99173.53;4499958;31;33351;-70
2023/07/28 10:39:25;;;;;;;17.05;8.82;;;;;;;26.60;39.13;99177.37;4498788;31;33387;-70
2023/07/28 10:42:08;;;;;;;11.80;6.40;;;;;;;26.60;39.22;99191.03;4498223;31;34912;-70
2023/07/28 10:44:36;;;;;;;10.32;5.82;;;;;;;26.65;39.18;99182.06;4484130;32;35102;-68
2023/07/28 10:47:08;;;;;;;9.93;5.40;;;;;;;26.62;39.27;99177.91;4484463;32;33718;-69
2023/07/28 10:49:35;;;;;;;9.85;5.15;;;;;;;26.63;39.36;99185.06;4483872;32;33676;-70
2023/07/28 10:52:03;;;;;;;12.77;5.65;;;;;;;26.66;39.45;99186.44;4484081;32;33851;-69
2023/07/28 10:54:33;;;;;;;10.48;4.97;;;;;;;26.65;39.48;99182.88;4483812;32;34119;-70
2023/07/28 10:57:04;;;;;;;8.77;4.40;;;;;;;26.67;39.61;99172.50;4482872;32;33622;-71
2023/07/28 10:59:35;;;;;;;10.10;4.60;;;;;;;26.72;39.72;99182.66;4483921;32;33876;-67
2023/07/28 11:02:02;;;;;;;9.52;4.47;;;;;;;26.72;39.70;99182.66;4483683;32;33975;-67
2023/07/28 11:04:30;;;;;;;7.93;3.83;;;;;;;26.76;39.68;99180.19;4492036;31;34783;-72
2023/07/28 11:06:58;;;;;;;9.70;4.20;;;;;;;26.76;39.68;99174.72;4495967;31;33754;-64
2023/07/28 11:09:25;;;;;;;11.85;4.47;;;;;;;26.73;39.72;99173.34;4483649;31;34818;-69
2023/07/28 11:11:53;;;;;;;7.43;4.03;;;;;;;26.75;39.85;99178.56;4482467;32;33727;-65
2023/07/28 11:14:21;;;;;;;7.45;3.92;;;;;;;26.79;39.87;99177.78;4481615;32;33811;-68
2023/07/28 11:16:49;;;;;;;9.02;4.45;;;;;;;26.78;39.83;99169.84;4482092;32;34194;-69
2023/07/28 11:19:24;;;;;;;7.50;3.53;;;;;;;26.78;39.83;99172.56;4485483;31;33905;-61
2023/07/28 11:21:53;;;;;;;7.47;4.25;;;;;;;26.75;39.83;99165.69;4495063;31;34700;-66
2023/07/28 11:24:20;;;;;;;7.28;3.55;;;;;;;26.76;39.82;99174.72;4497033;31;34176;-69
2023/07/28 11:26:49;;;;;;;7.22;3.10;;;;;;;26.75;39.80;99179.38;4493470;31;34327;-61
2023/07/28 11:29:18;;;;;;;7.03;3.65;;;;;;;26.76;39.73;99167.34;4483863;31;33811;-71
2023/07/28 11:31:45;;;;;;;6.80;3.17;;;;;;;26.77;39.68;99168.19;4497646;31;34039;-67
2023/07/28 11:34:16;;;;;;;6.62;3.00;;;;;;;26.79;39.74;99174.22;4498184;31;33705;-65
2023/07/28 11:36:44;;;;;;;7.78;3.22;;;;;;;26.79;39.74;99175.03;4497883;31;33573;-63
2023/07/28 11:39:11;;;;;;;7.53;3.22;;;;;;;26.79;39.76;99180.50;4498979;31;33923;-68
2023/07/28 11:41:39;;;;;;;6.87;3.12;;;;;;;26.79;39.70;99166.81;4491316;31;33833;-67